createdAt,value
2023-06-10T00:01:41.643Z,50.30
2023-06-10T00:04:08.454Z,50.40
2023-06-10T00:06:36.784Z,50.29
2023-06-10T00:09:06.993Z,50.37
2023-06-10T00:11:33.669Z,50.07
2023-06-10T00:14:01.104Z,50.12
2023-06-10T00:16:27.790Z,50.15
2023-06-10T00:18:56.673Z,50.06
2023-06-10T00:21:23.444Z,49.72
2023-06-10T00:23:50.720Z,49.92
2023-06-10T00:26:17.418Z,49.78
2023-06-10T00:28:45.938Z,49.97
2023-06-10T00:31:12.499Z,49.52
2023-06-10T00:33:38.926Z,49.59
2023-06-10T00:36:05.649Z,49.62
2023-06-10T00:38:32.945Z,49.47
2023-06-10T00:40:59.765Z,49.56
2023-06-10T00:43:26.300Z,49.33
2023-06-10T00:45:53.233Z,49.15
2023-06-10T00:48:20.715Z,49.02
2023-06-10T00:50:48.305Z,48.95
2023-06-10T00:53:14.960Z,48.77
2023-06-10T00:55:42.279Z,48.83
2023-06-10T00:58:09.345Z,48.82
2023-06-10T01:00:36.428Z,48.82
2023-06-10T01:03:08.727Z,48.62
2023-06-10T01:05:37.400Z,48.59
2023-06-10T01:08:30.409Z,48.47
2023-06-10T01:11:02.646Z,48.32
2023-06-10T01:13:30.314Z,48.41
2023-06-10T01:15:57.897Z,48.50
2023-06-10T01:18:24.675Z,48.21
2023-06-10T01:20:53.224Z,48.41
2023-06-10T01:23:19.698Z,48.35
2023-06-10T01:26:05.296Z,48.52
2023-06-10T01:28:58.411Z,48.69
2023-06-10T01:31:37.579Z,48.56
2023-06-10T01:34:14.874Z,48.50
2023-06-10T01:36:45.073Z,48.76
2023-06-10T01:39:12.376Z,48.42
2023-06-10T01:41:39.448Z,48.94
2023-06-10T01:44:05.947Z,49.00
2023-06-10T01:46:32.576Z,48.98
2023-06-10T01:48:59.271Z,49.28
2023-06-10T01:51:25.866Z,49.28
2023-06-10T01:53:52.302Z,49.43
2023-06-10T01:56:20.758Z,49.55
2023-06-10T01:58:47.851Z,49.53
2023-06-10T02:01:14.865Z,49.81
2023-06-10T02:03:42.054Z,49.90
2023-06-10T02:06:08.725Z,50.22
2023-06-10T02:08:35.736Z,50.23
2023-06-10T02:11:02.477Z,50.26
2023-06-10T02:13:28.979Z,50.42
2023-06-10T02:15:55.491Z,50.68
2023-06-10T02:18:22.864Z,51.02
2023-06-10T02:20:49.795Z,50.95
2023-06-10T02:23:16.288Z,51.39
2023-06-10T02:25:42.770Z,51.64
2023-06-10T02:28:09.524Z,51.70
2023-06-10T02:30:36.619Z,52.07
2023-06-10T02:33:03.160Z,52.03
2023-06-10T02:35:29.731Z,52.13
2023-06-10T02:37:56.330Z,52.28
2023-06-10T02:40:23.047Z,52.63
2023-06-10T02:42:50.525Z,52.76
2023-06-10T02:45:17.828Z,52.79
2023-06-10T02:47:44.490Z,52.98
2023-06-10T02:50:13.945Z,53.21
2023-06-10T02:52:40.424Z,53.43
2023-06-10T02:55:07.865Z,53.75
2023-06-10T02:57:34.550Z,54.07
2023-06-10T03:00:01.280Z,53.89
2023-06-10T03:02:29.585Z,54.33
2023-06-10T03:04:56.878Z,54.18
2023-06-10T03:07:24.118Z,54.53
2023-06-10T03:09:51.524Z,54.42
2023-06-10T03:12:18.055Z,54.83
2023-06-10T03:14:44.557Z,54.99
2023-06-10T03:17:11.017Z,55.23
2023-06-10T03:19:38.992Z,55.37
2023-06-10T03:22:13.746Z,55.31
2023-06-10T03:24:41.487Z,55.55
2023-06-10T03:27:09.149Z,55.63
2023-06-10T03:29:35.862Z,55.97
2023-06-10T03:32:02.950Z,56.15
2023-06-10T03:34:29.450Z,56.35
2023-06-10T03:36:55.883Z,56.50
2023-06-10T03:39:22.478Z,56.36
2023-06-10T03:41:49.089Z,56.66
2023-06-10T03:44:16.057Z,56.68
2023-06-10T03:46:42.696Z,57.01
2023-06-10T03:49:10.547Z,57.00
2023-06-10T03:51:37.870Z,57.34
2023-06-10T03:54:04.387Z,57.49
2023-06-10T03:56:30.881Z,57.58
2023-06-10T03:58:57.312Z,57.74
2023-06-10T04:01:24.644Z,57.43
2023-06-10T04:03:52.468Z,57.65
2023-06-10T04:06:18.956Z,57.62
2023-06-10T04:08:45.973Z,57.81
2023-06-10T04:11:12.624Z,58.03
2023-06-10T04:13:39.143Z,58.18
2023-06-10T04:16:06.145Z,58.09
2023-06-10T04:18:32.590Z,58.11
2023-06-10T04:20:59.243Z,58.37
2023-06-10T04:23:25.804Z,58.45
2023-06-10T04:25:52.271Z,58.85
2023-06-10T04:28:18.717Z,58.84
2023-06-10T04:30:47.017Z,59.04
2023-06-10T04:33:13.588Z,59.18
2023-06-10T04:35:40.294Z,59.40
2023-06-10T04:38:06.946Z,59.21
2023-06-10T04:40:33.663Z,59.64
2023-06-10T04:43:00.071Z,59.34
2023-06-10T04:45:31.492Z,59.39
2023-06-10T04:47:59.519Z,59.22
2023-06-10T04:50:26.131Z,59.46
2023-06-10T04:52:52.620Z,59.61
2023-06-10T04:55:19.184Z,59.67
2023-06-10T04:57:45.829Z,59.13
2023-06-10T05:00:12.842Z,59.55
2023-06-10T05:02:39.351Z,59.67
2023-06-10T05:05:06.084Z,59.52
2023-06-10T05:07:32.708Z,59.50
2023-06-10T05:09:59.200Z,59.57
2023-06-10T05:12:25.765Z,59.62
2023-06-10T05:14:52.213Z,59.45
2023-06-10T05:17:18.858Z,59.47
2023-06-10T05:19:45.595Z,59.46
2023-06-10T05:22:12.285Z,59.46
2023-06-10T05:24:39.132Z,59.51
2023-06-10T05:27:10.018Z,59.44
2023-06-10T05:29:36.522Z,59.20
2023-06-10T05:32:04.530Z,59.20
2023-06-10T05:34:32.068Z,59.26
2023-06-10T05:36:59.084Z,59.04
2023-06-10T05:39:25.514Z,58.73
2023-06-10T05:41:52.392Z,58.82
2023-06-10T05:44:18.822Z,58.67
2023-06-10T05:46:45.386Z,58.68
2023-06-10T05:49:11.894Z,58.56
2023-06-10T05:51:39.246Z,58.30
2023-06-10T05:54:05.936Z,58.36
2023-06-10T05:56:32.401Z,58.01
2023-06-10T05:59:01.656Z,58.35
2023-06-10T06:01:28.186Z,57.88
2023-06-10T06:03:54.725Z,57.35
2023-06-10T06:06:24.800Z,57.51
2023-06-10T06:08:51.286Z,57.20
2023-06-10T06:11:17.839Z,56.96
2023-06-10T06:13:44.310Z,56.77
2023-06-10T06:16:10.983Z,56.95
2023-06-10T06:18:37.492Z,56.28
2023-06-10T06:21:06.865Z,56.05
2023-06-10T06:23:33.553Z,55.82
2023-06-10T06:25:59.996Z,55.42
2023-06-10T06:28:30.311Z,54.91
2023-06-10T06:30:58.232Z,54.66
2023-06-10T06:33:27.343Z,55.01
2023-06-10T06:35:53.806Z,54.11
2023-06-10T06:38:20.330Z,54.04
2023-06-10T06:40:46.943Z,53.90
2023-06-10T06:43:13.392Z,53.69
2023-06-10T06:45:39.812Z,53.61
2023-06-10T06:48:06.944Z,53.24
2023-06-10T06:50:33.715Z,53.10
2023-06-10T06:53:00.366Z,53.17
2023-06-10T06:55:26.779Z,52.58
2023-06-10T06:57:56.215Z,52.53
2023-06-10T07:00:22.948Z,52.01
2023-06-10T07:02:49.661Z,51.89
2023-06-10T07:05:16.266Z,51.44
2023-06-10T07:07:42.733Z,51.32
2023-06-10T07:10:09.644Z,51.31
2023-06-10T07:12:36.183Z,51.54
2023-06-10T07:15:02.776Z,50.85
2023-06-10T07:17:29.282Z,51.00
2023-06-10T07:19:58.498Z,50.61
2023-06-10T07:22:25.177Z,49.81
2023-06-10T07:24:53.000Z,50.05
2023-06-10T07:27:19.658Z,49.75
2023-06-10T07:29:46.351Z,49.95
2023-06-10T07:32:12.987Z,49.64
2023-06-10T07:34:39.570Z,48.76
2023-06-10T07:37:06.578Z,48.51
2023-06-10T07:39:33.069Z,47.73
2023-06-10T07:41:59.662Z,48.20
2023-06-10T07:44:26.233Z,48.17
2023-06-10T07:46:52.907Z,48.10
2023-06-10T07:49:19.528Z,47.77
2023-06-10T07:51:46.274Z,47.57
2023-06-10T07:54:13.398Z,46.89
2023-06-10T07:56:40.691Z,46.83
2023-06-10T07:59:07.212Z,46.70
2023-06-10T08:01:34.180Z,46.84
2023-06-10T08:04:00.977Z,46.37
2023-06-10T08:06:27.729Z,46.07
2023-06-10T08:08:54.509Z,46.15
2023-06-10T08:11:21.741Z,46.37
2023-06-10T08:13:48.475Z,45.00
2023-06-10T08:16:14.967Z,45.32
2023-06-10T08:18:41.741Z,44.12
2023-06-10T08:21:08.261Z,44.28
2023-06-10T08:23:34.931Z,44.00
2023-06-10T08:26:01.392Z,43.34
2023-06-10T08:28:27.931Z,42.84
2023-06-10T08:30:57.403Z,43.26
2023-06-10T08:33:24.176Z,42.58
2023-06-10T08:35:50.650Z,42.64
2023-06-10T08:38:17.302Z,42.80
2023-06-10T08:40:44.215Z,42.03
2023-06-10T08:43:45.188Z,42.23
2023-06-10T08:46:13.264Z,42.04
2023-06-10T08:48:43.933Z,41.49
2023-06-10T08:51:13.245Z,41.51
2023-06-10T08:53:50.918Z,41.61
2023-06-10T08:56:18.695Z,40.60
2023-06-10T08:58:46.852Z,40.42
2023-06-10T09:01:14.536Z,39.96
2023-06-10T09:03:42.750Z,40.19
2023-06-10T09:06:10.083Z,40.34
2023-06-10T09:08:36.881Z,39.16
2023-06-10T09:11:03.473Z,38.55
2023-06-10T09:13:30.570Z,37.85
2023-06-10T09:16:01.366Z,38.53
2023-06-10T09:18:32.111Z,37.93
2023-06-10T09:20:59.730Z,36.77
2023-06-10T09:23:27.058Z,37.00
2023-06-10T09:25:58.948Z,36.50
2023-06-10T09:28:26.153Z,36.40
2023-06-10T09:31:04.204Z,36.63
2023-06-10T09:33:30.794Z,35.25
2023-06-10T09:36:02.114Z,35.41
2023-06-10T09:38:36.264Z,35.22
2023-06-10T09:41:04.285Z,34.79
2023-06-10T09:43:46.178Z,34.24
2023-06-10T09:46:21.350Z,34.68
2023-06-10T09:48:48.857Z,33.70
2023-06-10T09:51:18.169Z,33.09
2023-06-10T09:53:50.077Z,32.99
2023-06-10T09:56:16.880Z,32.89
2023-06-10T09:58:44.618Z,32.83
2023-06-10T10:01:13.435Z,32.76
2023-06-10T10:03:47.577Z,32.31
2023-06-10T10:06:15.837Z,31.43
2023-06-10T10:08:42.545Z,31.75
2023-06-10T10:11:09.954Z,31.44
2023-06-10T10:13:38.172Z,30.67
2023-06-10T10:16:13.302Z,31.50
2023-06-10T10:18:46.837Z,30.53
2023-06-10T10:21:14.692Z,30.05
2023-06-10T10:24:01.362Z,30.12
2023-06-10T10:26:28.412Z,29.74
2023-06-10T10:29:15.606Z,28.59
2023-06-10T10:31:45.409Z,28.40
2023-06-10T10:34:18.129Z,28.27
2023-06-10T10:36:46.376Z,29.35
2023-06-10T10:39:13.314Z,28.13
2023-06-10T10:41:40.725Z,27.90
2023-06-10T10:44:09.135Z,26.83
2023-06-10T10:46:55.274Z,27.68
2023-06-10T10:49:23.927Z,26.75
2023-06-10T10:52:02.443Z,26.05
2023-06-10T10:54:33.801Z,26.58
2023-06-10T10:57:23.318Z,25.93
2023-06-10T10:59:49.841Z,25.12
2023-06-10T11:02:19.022Z,25.47
2023-06-10T11:04:49.841Z,25.02
2023-06-10T11:07:22.750Z,24.41
2023-06-10T11:10:08.171Z,24.98
2023-06-10T11:12:46.697Z,25.20
2023-06-10T11:15:21.472Z,24.71
2023-06-10T11:18:13.030Z,24.97
2023-06-10T11:20:53.806Z,24.84
2023-06-10T11:23:29.604Z,24.67
2023-06-10T11:26:23.002Z,24.01
2023-06-10T11:28:55.530Z,23.70
2023-06-10T11:31:22.878Z,23.60
2023-06-10T11:33:54.149Z,23.50
2023-06-10T11:36:20.859Z,23.74
2023-06-10T11:38:47.617Z,23.57
2023-06-10T11:41:15.480Z,23.29
2023-06-10T11:43:46.841Z,23.17
2023-06-10T11:46:15.045Z,23.10
2023-06-10T11:48:55.698Z,24.11
2023-06-10T11:51:22.692Z,24.01
2023-06-10T11:53:50.402Z,23.26
2023-06-10T11:56:24.290Z,24.01
2023-06-10T11:58:59.045Z,23.43
2023-06-10T12:01:33.280Z,22.82
2023-06-10T12:04:00.889Z,22.39
2023-06-10T12:06:27.671Z,23.03
2023-06-10T12:08:55.413Z,22.33
2023-06-10T12:11:22.597Z,22.94
2023-06-10T12:13:50.830Z,22.42
2023-06-10T12:16:18.144Z,22.50
2023-06-10T12:18:46.442Z,22.05
2023-06-10T12:21:21.207Z,22.62
2023-06-10T12:24:08.992Z,23.00
2023-06-10T12:26:37.273Z,21.46
2023-06-10T12:29:25.371Z,22.35
2023-06-10T12:32:08.729Z,21.56
2023-06-10T12:34:40.384Z,21.54
2023-06-10T12:37:14.568Z,21.55
2023-06-10T12:39:42.793Z,21.19
2023-06-10T12:42:13.604Z,21.39
2023-06-10T12:44:42.016Z,21.32
2023-06-10T12:47:13.389Z,21.20
2023-06-10T12:49:40.218Z,20.58
2023-06-10T12:52:08.293Z,20.79
2023-06-10T12:54:35.635Z,20.63
2023-06-10T12:57:02.384Z,21.45
2023-06-10T12:59:34.986Z,20.64
2023-06-10T13:02:01.441Z,21.15
2023-06-10T13:04:28.041Z,21.17
2023-06-10T13:06:54.693Z,21.28
2023-06-10T13:09:21.177Z,20.68
2023-06-10T13:11:47.839Z,20.94
2023-06-10T13:14:14.415Z,20.16
2023-06-10T13:16:41.118Z,20.83
2023-06-10T13:19:07.770Z,20.15
2023-06-10T13:21:35.305Z,20.20
2023-06-10T13:24:02.133Z,19.39
2023-06-10T13:26:28.662Z,19.74
2023-06-10T13:28:55.310Z,19.85
2023-06-10T13:31:24.870Z,18.90
2023-06-10T13:33:51.449Z,20.25
2023-06-10T13:36:17.943Z,19.12
2023-06-10T13:38:44.494Z,19.17
2023-06-10T13:41:11.249Z,19.99
2023-06-10T13:43:37.733Z,19.10
2023-06-10T13:46:04.395Z,18.91
2023-06-10T13:48:30.861Z,18.55
2023-06-10T13:50:58.048Z,19.27
2023-06-10T13:53:24.586Z,18.17
2023-06-10T13:55:51.106Z,18.36
2023-06-10T13:58:17.608Z,17.96
2023-06-10T14:00:44.236Z,17.81
2023-06-10T14:03:10.989Z,18.24
2023-06-10T14:05:37.612Z,17.72
2023-06-10T14:08:04.414Z,17.54
2023-06-10T14:10:31.029Z,17.52
2023-06-10T14:12:57.586Z,17.80
2023-06-10T14:15:24.295Z,17.26
2023-06-10T14:17:50.903Z,17.95
2023-06-10T14:20:17.420Z,17.56
2023-06-10T14:22:44.029Z,16.65
2023-06-10T14:25:12.577Z,16.44
2023-06-10T14:27:39.307Z,17.36
2023-06-10T14:30:06.662Z,16.80
2023-06-10T14:32:33.333Z,17.31
2023-06-10T14:34:59.965Z,17.52
2023-06-10T14:37:26.447Z,17.11
2023-06-10T14:39:52.894Z,16.66
2023-06-10T14:42:19.339Z,15.95
2023-06-10T14:44:45.782Z,16.45
2023-06-10T14:47:12.303Z,16.57
2023-06-10T14:49:38.788Z,17.36
2023-06-10T14:52:05.517Z,17.60
2023-06-10T14:54:32.030Z,17.10
2023-06-10T14:56:58.509Z,17.11
2023-06-10T14:59:25.087Z,17.26
2023-06-10T15:01:51.664Z,16.85
2023-06-10T15:04:20.310Z,17.00
2023-06-10T15:06:50.187Z,17.39
2023-06-10T15:09:17.141Z,16.97
2023-06-10T15:11:43.687Z,17.60
2023-06-10T15:14:10.148Z,16.60
2023-06-10T15:16:36.660Z,17.12
2023-06-10T15:19:03.116Z,16.55
2023-06-10T15:21:29.634Z,16.86
2023-06-10T15:23:56.248Z,17.04
2023-06-10T15:26:22.806Z,16.63
2023-06-10T15:28:49.231Z,16.50
2023-06-10T15:31:16.235Z,17.07
2023-06-10T15:33:45.161Z,16.91
2023-06-10T15:36:14.547Z,16.88
2023-06-10T15:38:41.274Z,16.02
2023-06-10T15:41:07.830Z,15.70
2023-06-10T15:43:34.275Z,16.30
2023-06-10T15:46:00.716Z,16.15
2023-06-10T15:48:27.179Z,16.39
2023-06-10T15:50:53.746Z,16.14
2023-06-10T15:53:20.151Z,16.57
2023-06-10T15:55:46.869Z,16.14
2023-06-10T15:58:13.496Z,15.93
2023-06-10T16:00:39.896Z,15.85
2023-06-10T16:03:06.655Z,15.64
2023-06-10T16:05:33.127Z,15.54
2023-06-10T16:08:03.441Z,15.80
2023-06-10T16:10:30.225Z,15.44
2023-06-10T16:12:56.801Z,15.25
2023-06-10T16:15:23.227Z,15.22
2023-06-10T16:17:49.696Z,16.45
2023-06-10T16:20:16.411Z,16.29
2023-06-10T16:22:42.893Z,14.86
2023-06-10T16:25:09.755Z,15.43
2023-06-10T16:27:36.838Z,15.46
2023-06-10T16:30:04.997Z,15.06
2023-06-10T16:32:31.692Z,15.62
2023-06-10T16:34:58.382Z,15.38
2023-06-10T16:37:24.961Z,15.64
2023-06-10T16:39:52.062Z,15.85
2023-06-10T16:42:18.617Z,15.31
2023-06-10T16:44:45.068Z,14.89
2023-06-10T16:47:11.910Z,14.61
2023-06-10T16:49:39.049Z,14.83
2023-06-10T16:52:06.586Z,15.46
2023-06-10T16:54:33.059Z,15.08
2023-06-10T16:56:59.500Z,14.54
2023-06-10T16:59:25.936Z,14.80
2023-06-10T17:01:52.475Z,14.86
2023-06-10T17:04:19.003Z,14.88
2023-06-10T17:06:45.472Z,15.44
2023-06-10T17:09:12.120Z,14.95
2023-06-10T17:11:38.737Z,14.91
2023-06-10T17:14:05.726Z,15.11
2023-06-10T17:16:32.293Z,14.48
2023-06-10T17:18:58.686Z,15.33
2023-06-10T17:21:25.338Z,15.49
2023-06-10T17:23:52.525Z,15.83
2023-06-10T17:26:19.098Z,15.36
2023-06-10T17:28:45.580Z,15.42
2023-06-10T17:31:12.312Z,15.44
2023-06-10T17:33:38.703Z,15.50
2023-06-10T17:36:05.899Z,14.93
2023-06-10T17:38:32.400Z,14.86
2023-06-10T17:40:59.030Z,14.77
2023-06-10T17:43:25.832Z,15.50
2023-06-10T17:45:52.790Z,16.61
2023-06-10T17:48:19.469Z,17.24
2023-06-10T17:50:46.189Z,17.90
2023-06-10T17:53:12.619Z,18.34
2023-06-10T17:55:39.539Z,18.67
2023-06-10T17:58:05.965Z,19.06
2023-06-10T18:00:34.289Z,19.08
2023-06-10T18:03:04.116Z,19.46
2023-06-10T18:05:30.831Z,19.55
2023-06-10T18:07:57.416Z,20.12
2023-06-10T18:10:24.098Z,20.00
2023-06-10T18:12:50.603Z,20.30
2023-06-10T18:15:17.013Z,19.71
2023-06-10T18:17:43.541Z,19.16
2023-06-10T18:20:12.918Z,18.03
2023-06-10T18:22:39.510Z,17.98
2023-06-10T18:25:06.298Z,17.46
2023-06-10T18:27:36.061Z,17.91
2023-06-10T18:30:03.675Z,17.95
2023-06-10T18:32:30.131Z,19.21
2023-06-10T18:34:56.611Z,20.05
2023-06-10T18:37:23.124Z,20.59
2023-06-10T18:39:50.342Z,21.58
2023-06-10T18:42:17.246Z,22.23
2023-06-10T18:44:43.700Z,22.79
2023-06-10T18:47:10.985Z,22.91
2023-06-10T18:49:37.555Z,23.27
2023-06-10T18:52:04.963Z,23.48
2023-06-10T18:54:31.461Z,23.99
2023-06-10T18:56:59.166Z,23.32
2023-06-10T18:59:25.656Z,23.47
2023-06-10T19:01:52.136Z,23.62
2023-06-10T19:04:18.733Z,24.05
2023-06-10T19:06:45.498Z,24.63
2023-06-10T19:09:12.122Z,25.00
2023-06-10T19:11:39.615Z,25.63
2023-06-10T19:14:07.987Z,25.69
2023-06-10T19:16:35.146Z,26.04
2023-06-10T19:19:01.641Z,26.41
2023-06-10T19:21:28.139Z,26.65
2023-06-10T19:23:57.550Z,26.16
2023-06-10T19:26:24.018Z,26.55
2023-06-10T19:28:50.625Z,26.57
2023-06-10T19:31:17.373Z,26.99
2023-06-10T19:33:44.221Z,27.44
2023-06-10T19:36:10.892Z,27.57
2023-06-10T19:38:38.177Z,27.55
2023-06-10T19:41:06.157Z,27.81
2023-06-10T19:43:32.931Z,27.73
2023-06-10T19:45:59.666Z,28.32
2023-06-10T19:48:26.752Z,28.07
2023-06-10T19:50:53.697Z,28.22
2023-06-10T19:53:20.160Z,28.73
2023-06-10T19:55:46.932Z,28.34
2023-06-10T19:58:13.599Z,28.76
2023-06-10T20:00:40.588Z,28.79
2023-06-10T20:03:07.189Z,28.93
2023-06-10T20:05:34.368Z,28.88
2023-06-10T20:08:01.126Z,29.13
2023-06-10T20:10:27.752Z,29.41
2023-06-10T20:12:54.596Z,29.31
2023-06-10T20:15:21.131Z,29.63
2023-06-10T20:17:48.585Z,29.68
2023-06-10T20:20:16.283Z,30.49
2023-06-10T20:22:42.762Z,29.96
2023-06-10T20:25:11.207Z,30.23
2023-06-10T20:27:39.191Z,30.33
2023-06-10T20:30:06.335Z,30.51
2023-06-10T20:32:32.903Z,30.82
2023-06-10T20:34:59.487Z,30.62
2023-06-10T20:37:26.206Z,30.92
2023-06-10T20:39:52.688Z,30.90
2023-06-10T20:42:19.287Z,30.96
2023-06-10T20:44:45.811Z,31.07
2023-06-10T20:47:12.400Z,31.00
2023-06-10T20:49:39.772Z,31.45
2023-06-10T20:52:06.597Z,31.99
2023-06-10T20:54:33.034Z,31.72
2023-06-10T20:56:59.521Z,32.04
2023-06-10T20:59:26.062Z,32.24
2023-06-10T21:01:52.779Z,32.55
2023-06-10T21:04:19.452Z,32.38
2023-06-10T21:06:46.376Z,32.75
2023-06-10T21:09:13.001Z,33.19
2023-06-10T21:11:39.525Z,32.94
2023-06-10T21:14:08.536Z,33.23
2023-06-10T21:16:36.091Z,33.22
2023-06-10T21:19:03.383Z,33.78
2023-06-10T21:21:30.015Z,34.19
2023-06-10T21:23:56.788Z,34.93
2023-06-10T21:26:23.385Z,35.30
2023-06-10T21:28:49.847Z,35.34
2023-06-10T21:31:16.717Z,36.55
2023-06-10T21:33:43.197Z,36.73
2023-06-10T21:36:09.622Z,37.20
2023-06-10T21:38:36.141Z,37.54
2023-06-10T21:41:02.928Z,37.82
2023-06-10T21:43:29.368Z,38.33
2023-06-10T21:45:57.591Z,38.38
2023-06-10T21:48:24.257Z,38.50
2023-06-10T21:50:50.969Z,38.64
2023-06-10T21:53:17.442Z,39.55
2023-06-10T21:55:43.894Z,40.21
2023-06-10T21:58:10.358Z,40.62
2023-06-10T22:00:37.441Z,41.67
2023-06-10T22:03:04.113Z,41.81
2023-06-10T22:05:30.829Z,41.87
2023-06-10T22:07:57.346Z,42.33
2023-06-10T22:10:23.933Z,42.67
2023-06-10T22:12:50.810Z,43.32
2023-06-10T22:15:17.431Z,43.85
2023-06-10T22:17:44.106Z,43.87
2023-06-10T22:22:40.139Z,44.54
2023-06-10T22:25:07.603Z,44.48
2023-06-10T22:27:34.170Z,44.83
2023-06-10T22:30:01.827Z,44.62
2023-06-10T22:32:28.348Z,44.92
2023-06-10T22:34:54.959Z,45.04
2023-06-10T22:37:22.023Z,45.56
2023-06-10T22:39:48.586Z,45.69
2023-06-10T22:42:15.189Z,45.90
2023-06-10T22:44:41.600Z,45.96
2023-06-10T22:47:08.557Z,46.28
2023-06-10T22:49:35.052Z,46.53
2023-06-10T22:52:01.800Z,47.05
2023-06-10T22:54:28.330Z,47.06
2023-06-10T22:56:55.044Z,47.22
2023-06-10T22:59:21.760Z,46.99
2023-06-10T23:01:48.444Z,47.59
2023-06-10T23:04:15.135Z,47.09
2023-06-10T23:06:41.679Z,46.52
2023-06-10T23:09:09.581Z,46.52
2023-06-10T23:11:36.225Z,46.20
2023-06-10T23:14:02.806Z,47.17
2023-06-10T23:16:29.371Z,47.79
2023-06-10T23:18:55.954Z,48.20
2023-06-10T23:21:22.546Z,48.40
2023-06-10T23:23:52.578Z,48.80
2023-06-10T23:26:19.281Z,48.55
2023-06-10T23:28:45.797Z,48.87
2023-06-10T23:31:12.483Z,48.81
2023-06-10T23:33:40.016Z,49.24
2023-06-10T23:36:06.857Z,49.50
2023-06-10T23:38:33.286Z,49.52
2023-06-10T23:40:59.805Z,49.96
2023-06-10T23:43:26.190Z,50.44
2023-06-10T23:45:52.633Z,50.62
2023-06-10T23:48:19.314Z,51.28
2023-06-10T23:50:46.069Z,50.95
2023-06-10T23:53:13.174Z,50.98
2023-06-10T23:55:39.768Z,50.81
2023-06-10T23:58:06.523Z,51.80
